Time;durP1;ratioP1;P1;durP2;ratioP2;P2;SDS_P1;SDS_P2;PMS_P1;PMS_P2;Temp;Humidity;BMP_temperature;BMP_pressure;BME280_temperature;BME280_humidity;BME280_pressure;Samples;Min_cycle;Max_cycle;Signal;HPM_P1;HPM_P2
2021/01/15 00:00:10;;;;;;;7.88;5.35;;;;;;;-2.23;85.42;95904.38;1032999;28;20586;-84
2021/01/15 00:00:40;;;;;;;7.20;5.72;;;;;;;-2.23;84.43;95903.56;1036425;28;20025;-86
2021/01/15 00:01:19;;;;;;;6.38;5.22;;;;;;;-2.21;84.16;95914.56;1036183;28;20364;-86
2021/01/15 00:01:49;;;;;;;9.48;5.60;;;;;;;-2.27;85.95;95910.06;1036804;28;20355;-86
2021/01/15 00:02:20;;;;;;;10.75;5.68;;;;;;;-2.31;84.62;95912.19;1036059;28;20038;-86
2021/01/15 00:02:50;;;;;;;8.10;5.60;;;;;;;-2.20;86.77;95911.00;1036352;28;20030;-86
2021/01/15 00:03:21;;;;;;;8.45;6.07;;;;;;;-2.24;86.47;95914.94;1036413;28;20128;-87
2021/01/15 00:03:52;;;;;;;7.15;5.72;;;;;;;-2.18;86.83;95907.22;1032215;28;20030;-87
2021/01/15 00:04:24;;;;;;;7.63;6.30;;;;;;;-2.15;86.69;95903.47;1033207;28;20030;-87
2021/01/15 00:04:54;;;;;;;9.77;6.05;;;;;;;-2.10;87.01;95904.56;1037403;28;20029;-87
2021/01/15 00:05:25;;;;;;;7.47;5.50;;;;;;;-2.11;86.49;95902.16;1033896;28;20029;-86
2021/01/15 00:05:55;;;;;;;8.95;6.05;;;;;;;-2.10;84.22;95908.97;1037603;28;20036;-87
2021/01/15 00:06:26;;;;;;;8.93;6.15;;;;;;;-2.16;84.26;95904.47;1036126;28;20037;-86
2021/01/15 00:07:02;;;;;;;6.63;5.72;;;;;;;-2.11;86.45;95904.75;1032238;28;20105;-86
2021/01/15 00:07:33;;;;;;;9.30;5.72;;;;;;;-2.12;84.86;95905.75;1036107;28;20029;-86
2021/01/15 00:08:03;;;;;;;8.50;5.32;;;;;;;-2.08;86.15;95896.59;1036333;28;20033;-86
2021/01/15 00:08:35;;;;;;;8.10;5.75;;;;;;;-2.10;84.90;95903.78;1032350;28;20045;-87
2021/01/15 00:09:05;;;;;;;7.93;5.95;;;;;;;-2.12;86.14;95906.53;1028160;28;20047;-86
2021/01/15 00:09:36;;;;;;;8.80;5.50;;;;;;;-2.24;84.50;95901.94;1028824;28;20350;-86
2021/01/15 00:10:07;;;;;;;9.25;5.88;;;;;;;-2.29;84.39;95904.22;1032205;28;20138;-88
2021/01/15 00:10:37;;;;;;;7.55;6.15;;;;;;;-2.33;84.70;95908.16;1039681;28;20026;-87
2021/01/15 00:11:20;;;;;;;8.38;6.30;;;;;;;-2.28;87.68;95898.06;1037061;28;20049;-88
2021/01/15 00:11:51;;;;;;;7.10;5.90;;;;;;;-2.28;85.77;95900.66;1036958;28;20022;-88
2021/01/15 00:12:21;;;;;;;7.45;6.00;;;;;;;-2.29;85.24;95893.84;1036636;28;20371;-88
2021/01/15 00:12:52;;;;;;;7.68;6.10;;;;;;;-2.27;86.32;95899.66;1037242;28;20347;-89
2021/01/15 00:13:22;;;;;;;9.25;6.57;;;;;;;-2.29;85.11;95896.44;1037181;28;20133;-89
2021/01/15 00:13:53;;;;;;;11.38;6.35;;;;;;;-2.24;86.71;95902.75;1036840;28;20079;-87
2021/01/15 00:14:24;;;;;;;12.90;6.65;;;;;;;-2.31;86.81;95895.81;1040213;28;20020;-87
2021/01/15 00:14:54;;;;;;;7.38;6.07;;;;;;;-2.22;87.23;95905.16;1040819;28;20013;-88
2021/01/15 00:15:24;;;;;;;9.25;6.40;;;;;;;-2.30;85.94;95898.25;1040835;28;20032;-87
2021/01/15 00:15:55;;;;;;;8.57;6.20;;;;;;;-2.40;86.71;95913.22;1040180;28;20044;-88
2021/01/15 00:16:28;;;;;;;10.70;6.68;;;;;;;-2.31;87.78;95911.41;1040722;28;20509;-88
2021/01/15 00:16:58;;;;;;;12.55;6.05;;;;;;;-2.28;85.58;95911.84;1041137;28;20017;-88
2021/01/15 00:17:33;;;;;;;8.10;6.40;;;;;;;-2.27;86.58;95903.06;1039103;28;20063;-88
2021/01/15 00:18:03;;;;;;;7.43;5.78;;;;;;;-2.28;85.09;95911.03;1034138;28;20018;-88
2021/01/15 00:18:34;;;;;;;7.55;6.05;;;;;;;-2.42;86.03;95904.81;1036018;28;20545;-88
2021/01/15 00:19:04;;;;;;;8.18;6.18;;;;;;;-2.29;88.03;95899.03;1037033;28;20021;-88
2021/01/15 00:19:35;;;;;;;10.30;6.32;;;;;;;-2.18;88.47;95909.03;1037538;28;20042;-88
2021/01/15 00:20:06;;;;;;;9.52;6.18;;;;;;;-2.19;86.68;95902.22;1037993;28;20026;-88
2021/01/15 00:20:37;;;;;;;9.45;6.40;;;;;;;-2.23;86.44;95906.97;1039942;28;20030;-87
2021/01/15 00:21:07;;;;;;;10.20;6.70;;;;;;;-2.24;87.18;95912.31;1040722;28;20025;-88
2021/01/15 00:21:48;;;;;;;9.45;6.53;;;;;;;-2.24;86.05;95902.75;1040541;28;20029;-87
2021/01/15 00:22:18;;;;;;;9.48;6.38;;;;;;;-2.23;85.95;95908.75;1037905;28;20029;-88
2021/01/15 00:22:49;;;;;;;7.57;6.25;;;;;;;-2.26;85.77;95907.28;1036471;28;20117;-88
2021/01/15 00:23:20;;;;;;;9.70;6.55;;;;;;;-2.37;85.04;95905.09;1036392;28;20446;-87
2021/01/15 00:23:53;;;;;;;8.18;6.28;;;;;;;-2.36;85.47;95902.34;1036596;28;20416;-87
2021/01/15 00:24:23;;;;;;;10.18;6.60;;;;;;;-2.45;85.08;95910.34;1040252;28;20505;-89
2021/01/15 00:24:53;;;;;;;9.13;6.82;;;;;;;-2.46;85.68;95909.56;1041421;28;20029;-88
2021/01/15 00:25:24;;;;;;;10.13;6.78;;;;;;;-2.53;86.36;95903.41;1041081;28;20034;-88
2021/01/15 00:25:54;;;;;;;8.98;7.22;;;;;;;-2.48;87.80;95911.53;1036801;28;20014;-87
2021/01/15 00:26:27;;;;;;;9.57;7.28;;;;;;;-2.49;87.40;95909.88;1033015;28;20026;-87
2021/01/15 00:26:57;;;;;;;10.57;7.18;;;;;;;-2.47;86.38;95907.94;1033072;28;20034;-88
2021/01/15 00:27:27;;;;;;;9.70;6.90;;;;;;;-2.55;86.20;95902.78;1036673;28;20033;-88
2021/01/15 00:27:58;;;;;;;11.00;6.80;;;;;;;-2.55;86.04;95907.97;1036713;28;20018;-87
2021/01/15 00:28:28;;;;;;;8.93;6.05;;;;;;;-2.55;86.90;95904.59;1032369;28;20034;-88
2021/01/15 00:28:59;;;;;;;10.90;7.05;;;;;;;-2.62;86.22;95901.84;1036859;28;20022;-87
2021/01/15 00:29:29;;;;;;;10.80;7.18;;;;;;;-2.57;87.61;95898.75;1036907;28;20014;-88
2021/01/15 00:30:00;;;;;;;9.05;6.80;;;;;;;-2.64;86.73;95901.22;1037472;28;20069;-88
2021/01/15 00:30:31;;;;;;;11.18;6.55;;;;;;;-2.60;86.11;95905.09;1036611;28;20486;-88
2021/01/15 00:31:02;;;;;;;11.05;6.75;;;;;;;-2.66;86.54;95903.19;1036520;28;20018;-88
2021/01/15 00:31:34;;;;;;;11.85;7.18;;;;;;;-2.62;87.86;95899.25;1036387;28;20127;-88
2021/01/15 00:32:05;;;;;;;9.77;7.40;;;;;;;-2.55;88.15;95907.19;1033126;28;20102;-87
2021/01/15 00:32:36;;;;;;;12.93;7.60;;;;;;;-2.59;86.99;95905.91;1032240;28;20030;-89
2021/01/15 00:33:06;;;;;;;9.00;7.07;;;;;;;-2.65;86.78;95907.38;1032200;28;20025;-88
2021/01/15 00:33:37;;;;;;;9.80;7.10;;;;;;;-2.63;87.75;95908.03;1032700;28;20029;-87
2021/01/15 00:34:09;;;;;;;8.82;6.72;;;;;;;-2.65;86.74;95910.78;1036495;28;20025;-88
2021/01/15 00:34:39;;;;;;;10.85;7.15;;;;;;;-2.66;87.46;95908.38;1040302;28;20026;-88
2021/01/15 00:35:10;;;;;;;9.40;7.07;;;;;;;-2.59;87.64;95914.50;1040448;28;20029;-88
2021/01/15 00:35:40;;;;;;;10.65;6.90;;;;;;;-2.59;86.95;95917.09;1040254;28;20485;-88
2021/01/15 00:36:11;;;;;;;10.30;6.70;;;;;;;-2.58;86.62;95916.13;1040641;28;20413;-88
2021/01/15 00:36:44;;;;;;;10.77;6.53;;;;;;;-2.78;86.81;95909.75;1040325;28;20478;-87
2021/01/15 00:37:15;;;;;;;9.85;6.53;;;;;;;-2.72;86.78;95912.47;1040368;28;20017;-87
2021/01/15 00:37:46;;;;;;;12.07;7.13;;;;;;;-2.76;86.80;95918.97;1040259;28;20032;-87
2021/01/15 00:38:17;;;;;;;9.07;6.68;;;;;;;-3.11;87.10;95915.06;1040452;28;20033;-87
2021/01/15 00:38:47;;;;;;;11.05;7.45;;;;;;;-3.14;87.40;95925.78;1040682;28;20029;-87
2021/01/15 00:39:18;;;;;;;13.73;7.35;;;;;;;-3.02;87.33;95911.47;1040718;28;20025;-88
2021/01/15 00:39:48;;;;;;;9.70;6.80;;;;;;;-2.95;87.00;95914.22;1039665;28;20033;-87
2021/01/15 00:40:19;;;;;;;11.15;7.75;;;;;;;-3.02;87.25;95910.66;1041413;28;20018;-87
2021/01/15 00:41:05;;;;;;;9.98;7.15;;;;;;;-3.00;88.58;95913.91;1043464;28;20041;-86
2021/01/15 00:41:36;;;;;;;12.63;7.13;;;;;;;-3.00;87.82;95912.13;1042660;28;20022;-88
2021/01/15 00:42:09;;;;;;;13.40;7.15;;;;;;;-3.00;88.37;95911.31;1037194;28;20053;-87
2021/01/15 00:42:41;;;;;;;8.98;6.45;;;;;;;-2.93;87.77;95920.03;1035936;28;20085;-87
2021/01/15 00:43:11;;;;;;;9.98;6.82;;;;;;;-3.09;86.83;95915.72;1035300;28;20495;-87
2021/01/15 00:43:42;;;;;;;10.48;6.60;;;;;;;-3.10;86.76;95910.69;1033113;28;20029;-86
2021/01/15 00:44:13;;;;;;;9.38;6.80;;;;;;;-3.16;86.63;95917.38;1036538;28;20022;-87
2021/01/15 00:44:45;;;;;;;12.90;7.15;;;;;;;-3.09;86.90;95913.13;1039184;28;20041;-87
2021/01/15 00:45:18;;;;;;;8.57;6.40;;;;;;;-3.10;87.58;95913.28;1039419;28;20050;-87
2021/01/15 00:45:48;;;;;;;10.38;6.50;;;;;;;-3.12;86.92;95908.28;1039266;28;20061;-86
2021/01/15 00:46:31;;;;;;;9.82;7.03;;;;;;;-3.07;87.24;95918.97;1039072;28;20048;-86
2021/01/15 00:47:01;;;;;;;12.32;7.00;;;;;;;-3.07;87.46;95911.19;1038878;28;20018;-86
2021/01/15 00:47:32;;;;;;;9.82;6.68;;;;;;;-3.04;87.17;95913.44;1038986;28;20026;-86
2021/01/15 00:48:03;;;;;;;10.52;7.05;;;;;;;-2.97;88.66;95911.75;1038885;28;20049;-87
2021/01/15 00:48:37;;;;;;;11.02;6.78;;;;;;;-2.95;87.42;95909.03;1039062;28;20053;-87
2021/01/15 00:49:08;;;;;;;10.18;6.75;;;;;;;-2.97;87.02;95916.94;1038478;28;20533;-88
2021/01/15 00:49:38;;;;;;;9.38;6.65;;;;;;;-2.96;87.28;95909.97;1038577;28;20044;-89
2021/01/15 00:50:10;;;;;;;9.52;6.90;;;;;;;-2.83;88.86;95914.66;1038947;28;20025;-87
2021/01/15 00:50:41;;;;;;;10.77;6.88;;;;;;;-2.86;87.16;95909.78;1038749;28;20061;-86
2021/01/15 00:51:12;;;;;;;8.93;7.03;;;;;;;-2.96;86.75;95913.41;1038881;28;20048;-87
2021/01/15 00:51:49;;;;;;;9.90;6.85;;;;;;;-2.93;86.40;95916.63;1038667;28;20037;-87
2021/01/15 00:52:19;;;;;;;10.27;6.55;;;;;;;-2.97;86.91;95911.75;1039265;28;20486;-87
2021/01/15 00:52:52;;;;;;;9.82;6.65;;;;;;;-2.87;87.88;95915.94;1039344;28;20038;-86
2021/01/15 00:53:23;;;;;;;10.02;6.45;;;;;;;-2.87;87.64;95916.75;1038746;28;20030;-87
2021/01/15 00:53:53;;;;;;;11.18;6.63;;;;;;;-2.85;87.34;95912.19;1037410;28;20498;-88
2021/01/15 00:54:24;;;;;;;8.63;5.82;;;;;;;-2.80;86.78;95909.91;1037059;28;20025;-87
2021/01/15 00:54:54;;;;;;;10.27;6.30;;;;;;;-2.83;86.77;95909.47;1037328;28;20025;-87
2021/01/15 00:55:24;;;;;;;10.32;6.43;;;;;;;-2.84;85.36;95911.25;1033099;28;20011;-86
2021/01/15 00:55:55;;;;;;;8.82;6.32;;;;;;;-2.79;86.76;95908.13;1037135;28;20025;-88
2021/01/15 00:56:25;;;;;;;11.48;7.22;;;;;;;-2.84;86.12;95913.84;1036341;28;20378;-87
2021/01/15 00:56:59;;;;;;;11.43;6.30;;;;;;;-3.04;85.02;95899.66;1036273;28;20473;-87
2021/01/15 00:57:30;;;;;;;14.63;6.97;;;;;;;-3.07;85.08;95905.19;1036501;28;20525;-88
2021/01/15 00:58:01;;;;;;;9.70;6.72;;;;;;;-3.06;85.40;95906.81;1036516;28;20113;-87
2021/01/15 00:58:32;;;;;;;10.57;6.82;;;;;;;-3.05;86.52;95904.03;1036087;28;20073;-87
2021/01/15 00:59:02;;;;;;;10.13;6.68;;;;;;;-2.96;88.26;95908.22;1036357;28;20022;-87
2021/01/15 00:59:32;;;;;;;9.82;6.53;;;;;;;-2.98;86.60;95904.16;1036478;28;20352;-87
2021/01/15 01:00:07;;;;;;;9.57;6.50;;;;;;;-2.85;88.26;95898.41;1036379;28;20018;-87
2021/01/15 01:00:38;;;;;;;8.65;6.07;;;;;;;-2.82;86.81;95904.09;1036255;28;20026;-87
2021/01/15 01:01:16;;;;;;;11.40;6.72;;;;;;;-2.83;86.05;95906.88;1037882;28;20014;-87
2021/01/15 01:01:47;;;;;;;9.45;5.90;;;;;;;-2.81;86.71;95902.31;1039127;28;20050;-87
2021/01/15 01:02:17;;;;;;;9.23;6.65;;;;;;;-2.90;85.49;95898.13;1038019;28;20029;-87
2021/01/15 01:02:48;;;;;;;8.25;6.45;;;;;;;-2.89;85.42;95904.94;1033614;28;20025;-87
2021/01/15 01:03:18;;;;;;;9.82;6.88;;;;;;;-2.85;84.85;95895.81;1032498;28;20475;-87
2021/01/15 01:03:49;;;;;;;12.77;6.78;;;;;;;-2.85;86.71;95893.22;1032286;28;20023;-87
2021/01/15 01:04:19;;;;;;;9.43;7.10;;;;;;;-2.88;85.20;95904.75;1036215;28;20053;-86
2021/01/15 01:04:51;;;;;;;9.70;6.75;;;;;;;-2.88;86.69;95896.19;1036382;28;20359;-86
2021/01/15 01:05:22;;;;;;;9.75;6.78;;;;;;;-2.98;85.06;95904.16;1036508;28;20033;-86
2021/01/15 01:05:52;;;;;;;8.18;6.18;;;;;;;-3.04;85.56;95895.28;1032654;28;20394;-87
2021/01/15 01:06:23;;;;;;;7.63;6.15;;;;;;;-3.02;85.68;95895.13;1032353;28;20596;-86
2021/01/15 01:06:55;;;;;;;8.63;6.68;;;;;;;-2.97;86.69;95896.22;1032685;28;20045;-86
2021/01/15 01:07:25;;;;;;;7.25;6.47;;;;;;;-2.91;86.44;95896.53;1034490;28;20428;-87
2021/01/15 01:07:56;;;;;;;10.30;7.05;;;;;;;-2.90;85.96;95901.53;1038017;28;20021;-86
2021/01/15 01:08:27;;;;;;;10.73;6.72;;;;;;;-3.00;85.44;95900.94;1038216;28;20459;-85
2021/01/15 01:08:57;;;;;;;12.05;6.72;;;;;;;-3.08;85.26;95901.78;1042136;28;20029;-85
2021/01/15 01:09:27;;;;;;;8.55;7.00;;;;;;;-3.03;87.36;95902.09;1042035;28;20030;-86
2021/01/15 01:09:58;;;;;;;8.82;6.35;;;;;;;-3.09;86.40;95902.75;1042034;28;20083;-85
2021/01/15 01:10:31;;;;;;;9.98;6.47;;;;;;;-3.09;85.52;95897.56;1044739;28;20074;-86
2021/01/15 01:11:02;;;;;;;10.15;6.93;;;;;;;-3.04;85.85;95899.66;1046001;28;20031;-85
2021/01/15 01:11:32;;;;;;;9.57;7.03;;;;;;;-3.00;86.36;95900.94;1041893;28;20025;-85
2021/01/15 01:12:03;;;;;;;8.45;6.68;;;;;;;-3.04;85.98;95900.47;1037564;28;20097;-85
2021/01/15 01:12:38;;;;;;;8.95;7.22;;;;;;;-2.96;87.80;95902.19;1033714;28;20404;-85
2021/01/15 01:13:09;;;;;;;10.00;6.90;;;;;;;-3.01;86.34;95901.91;1028917;28;20023;-85
2021/01/15 01:13:39;;;;;;;12.95;7.45;;;;;;;-2.99;86.51;95908.53;1025471;28;20035;-86
2021/01/15 01:14:10;;;;;;;9.10;6.25;;;;;;;-2.98;84.97;95904.16;1033661;28;20026;-86
2021/01/15 01:14:41;;;;;;;9.20;6.43;;;;;;;-2.95;86.22;95906.44;1037636;28;20072;-86
2021/01/15 01:15:12;;;;;;;8.60;6.75;;;;;;;-3.07;85.77;95902.59;1029197;28;20023;-86
2021/01/15 01:15:43;;;;;;;12.00;7.10;;;;;;;-3.11;86.84;95902.13;1032811;28;20505;-86
2021/01/15 01:16:16;;;;;;;9.90;6.95;;;;;;;-3.13;85.83;95901.47;1028636;28;20031;-86
2021/01/15 01:16:46;;;;;;;9.55;6.93;;;;;;;-3.12;86.57;95903.09;1030181;28;20026;-85
2021/01/15 01:17:17;;;;;;;11.60;7.28;;;;;;;-3.07;87.51;95900.81;1040779;28;20051;-85
2021/01/15 01:17:47;;;;;;;10.35;7.43;;;;;;;-3.02;87.23;95902.88;1037758;28;20029;-86
2021/01/15 01:18:18;;;;;;;9.05;6.78;;;;;;;-3.15;86.04;95903.44;1040506;28;20497;-86
2021/01/15 01:18:49;;;;;;;10.40;7.47;;;;;;;-3.08;87.38;95904.38;1036072;28;20504;-86
2021/01/15 01:19:19;;;;;;;10.90;7.50;;;;;;;-2.95;88.49;95904.66;1036174;28;20057;-86
2021/01/15 01:19:50;;;;;;;9.75;7.25;;;;;;;-2.95;87.74;95889.09;1036043;28;20037;-86
2021/01/15 01:20:20;;;;;;;8.07;6.72;;;;;;;-2.88;87.13;95899.56;1036282;28;20088;-85
2021/01/15 01:20:51;;;;;;;10.88;6.50;;;;;;;-3.01;85.58;95902.72;1040188;28;20366;-85
2021/01/15 01:21:21;;;;;;;10.95;6.97;;;;;;;-2.99;85.68;95899.94;1040080;28;20493;-85
2021/01/15 01:21:52;;;;;;;8.60;7.20;;;;;;;-3.06;85.60;95907.63;1040489;28;20455;-86
2021/01/15 01:22:23;;;;;;;9.13;6.65;;;;;;;-3.11;85.58;95909.88;1040464;28;20021;-86
2021/01/15 01:22:54;;;;;;;11.27;7.00;;;;;;;-3.24;86.30;95907.03;1040288;28;20471;-86
2021/01/15 01:23:24;;;;;;;8.88;6.80;;;;;;;-3.14;86.18;95905.03;1040367;28;20022;-85
2021/01/15 01:23:54;;;;;;;7.32;6.45;;;;;;;-3.15;85.44;95906.03;1039569;28;20030;-86
2021/01/15 01:24:25;;;;;;;10.55;6.57;;;;;;;-3.13;85.80;95904.06;1035739;28;20018;-86
2021/01/15 01:24:56;;;;;;;9.65;7.22;;;;;;;-3.18;85.16;95901.19;1036162;28;20049;-86
2021/01/15 01:25:26;;;;;;;8.68;6.30;;;;;;;-3.24;85.66;95907.03;1035956;28;20028;-86
2021/01/15 01:25:57;;;;;;;9.38;6.72;;;;;;;-3.22;86.87;95901.69;1040246;28;20406;-86
2021/01/15 01:26:29;;;;;;;9.70;6.82;;;;;;;-3.16;87.00;95909.59;1040549;28;20022;-85
2021/01/15 01:26:59;;;;;;;9.77;6.55;;;;;;;-3.16;86.51;95906.19;1040598;28;20167;-86
2021/01/15 01:27:29;;;;;;;7.55;6.07;;;;;;;-3.30;87.16;95910.31;1040425;28;20474;-86
2021/01/15 01:28:00;;;;;;;8.70;6.57;;;;;;;-3.23;86.33;95903.47;1040237;28;20013;-86
2021/01/15 01:28:30;;;;;;;8.80;6.43;;;;;;;-3.15;86.51;95908.63;1040047;28;20072;-86
2021/01/15 01:29:01;;;;;;;12.82;7.03;;;;;;;-3.23;86.67;95906.06;1040485;28;20033;-86
2021/01/15 01:29:31;;;;;;;9.00;6.50;;;;;;;-3.11;88.36;95902.13;1040669;28;20132;-86
2021/01/15 01:30:02;;;;;;;10.98;6.32;;;;;;;-3.02;88.58;95908.06;1040526;28;20014;-86
2021/01/15 01:30:32;;;;;;;9.40;5.97;;;;;;;-3.01;87.21;95904.50;1040900;28;20501;-86
2021/01/15 01:31:02;;;;;;;9.40;6.25;;;;;;;-3.08;85.98;95906.97;1040954;28;20467;-85
2021/01/15 01:31:33;;;;;;;10.00;6.53;;;;;;;-3.04;87.33;95907.44;1040736;28;20056;-86
2021/01/15 01:32:04;;;;;;;9.23;6.88;;;;;;;-3.16;85.93;95909.59;1040834;28;20075;-86
2021/01/15 01:32:35;;;;;;;9.75;6.75;;;;;;;-3.14;85.83;95894.69;1040771;28;20081;-86
2021/01/15 01:33:05;;;;;;;10.43;6.88;;;;;;;-3.04;87.33;95904.84;1040909;28;20091;-87
2021/01/15 01:33:36;;;;;;;9.45;6.40;;;;;;;-3.06;86.40;95905.03;1040643;28;20059;-86
2021/01/15 01:34:07;;;;;;;9.38;6.30;;;;;;;-3.09;85.89;95910.53;1040552;28;20071;-85
2021/01/15 01:34:38;;;;;;;9.68;6.88;;;;;;;-3.12;86.09;95913.47;1040429;28;20071;-86
2021/01/15 01:35:09;;;;;;;10.15;6.53;;;;;;;-3.10;85.77;95898.53;1040541;28;20025;-86
2021/01/15 01:35:39;;;;;;;7.57;5.95;;;;;;;-3.11;85.18;95909.88;1040286;28;20406;-86
2021/01/15 01:36:11;;;;;;;9.73;6.95;;;;;;;-3.05;86.22;95905.84;1040180;28;20116;-86
2021/01/15 01:36:41;;;;;;;10.77;6.43;;;;;;;-3.17;85.13;95908.00;1040334;28;20097;-86
2021/01/15 01:37:11;;;;;;;10.40;7.28;;;;;;;-3.14;86.51;95910.22;1040167;28;20034;-86
2021/01/15 01:37:42;;;;;;;9.15;7.30;;;;;;;-3.08;87.78;95908.75;1040269;28;20025;-86
2021/01/15 01:38:12;;;;;;;9.18;6.45;;;;;;;-3.13;85.92;95911.03;1040054;28;20022;-86
2021/01/15 01:38:43;;;;;;;9.25;6.65;;;;;;;-3.20;85.20;95905.72;1031986;28;20538;-85
2021/01/15 01:39:13;;;;;;;11.52;7.20;;;;;;;-3.18;85.37;95908.97;1031898;28;20018;-86
2021/01/15 01:39:44;;;;;;;10.38;7.47;;;;;;;-3.15;86.46;95908.63;1032150;28;20026;-85
2021/01/15 01:40:15;;;;;;;9.93;7.10;;;;;;;-3.13;86.72;95905.84;1032383;28;20023;-86
2021/01/15 01:40:46;;;;;;;10.52;6.78;;;;;;;-3.20;86.04;95912.69;1041967;28;20443;-86
2021/01/15 01:41:16;;;;;;;10.18;6.95;;;;;;;-3.17;86.03;95913.16;1041933;28;20018;-86
2021/01/15 01:41:47;;;;;;;9.85;7.18;;;;;;;-3.18;86.53;95915.94;1042043;28;20048;-86
2021/01/15 01:42:17;;;;;;;10.02;6.50;;;;;;;-3.20;86.71;95910.88;1042084;28;20068;-86
2021/01/15 01:42:47;;;;;;;11.35;7.30;;;;;;;-3.16;87.49;95916.56;1041392;28;20083;-86
2021/01/15 01:43:18;;;;;;;8.38;6.72;;;;;;;-3.18;87.22;95906.38;1040483;28;20098;-86
2021/01/15 01:43:48;;;;;;;8.65;6.70;;;;;;;-3.21;87.00;95909.28;1040389;28;20132;-86
2021/01/15 01:44:19;;;;;;;9.57;6.80;;;;;;;-3.16;86.81;95912.19;1040369;28;20429;-86
2021/01/15 01:44:49;;;;;;;8.73;6.78;;;;;;;-3.11;87.58;95916.84;1040419;28;20083;-86
2021/01/15 01:45:19;;;;;;;11.25;6.68;;;;;;;-3.20;86.51;95910.09;1040359;28;20115;-85
2021/01/15 01:45:50;;;;;;;11.18;6.80;;;;;;;-3.17;87.42;95914.97;1040399;28;20033;-86
2021/01/15 01:46:20;;;;;;;8.02;6.28;;;;;;;-3.21;85.91;95909.28;1040250;28;20021;-86
2021/01/15 01:46:52;;;;;;;9.82;7.38;;;;;;;-3.24;86.95;95914.81;1040976;28;20025;-87
2021/01/15 01:47:23;;;;;;;9.20;6.55;;;;;;;-3.24;85.78;95912.22;1040074;28;20116;-85
2021/01/15 01:47:53;;;;;;;10.15;7.43;;;;;;;-3.23;86.71;95921.59;1034852;28;20122;-85
2021/01/15 01:48:23;;;;;;;7.80;6.47;;;;;;;-3.28;86.33;95916.94;1031783;28;20065;-85
2021/01/15 01:48:54;;;;;;;7.55;6.72;;;;;;;-3.26;86.47;95917.56;1031637;28;20038;-84
2021/01/15 01:49:24;;;;;;;9.02;6.97;;;;;;;-3.22;87.24;95914.63;1027849;28;20070;-86
2021/01/15 01:49:55;;;;;;;10.25;7.03;;;;;;;-3.27;86.34;95925.50;1031136;28;20054;-85
2021/01/15 01:50:26;;;;;;;13.93;7.32;;;;;;;-3.39;86.34;95924.25;1035635;28;20423;-84
2021/01/15 01:50:56;;;;;;;12.95;7.40;;;;;;;-3.36;85.68;95921.31;1036095;28;20029;-85
2021/01/15 01:51:27;;;;;;;7.90;6.80;;;;;;;-3.31;86.65;95924.25;1036108;28;20026;-85
2021/01/15 01:51:57;;;;;;;10.35;6.45;;;;;;;-3.39;86.67;95922.47;1035843;28;20420;-85
2021/01/15 01:52:28;;;;;;;10.65;6.95;;;;;;;-3.29;88.04;95915.31;1027827;28;20026;-85
2021/01/15 01:52:58;;;;;;;9.65;6.70;;;;;;;-3.29;87.86;95917.09;1027775;28;20451;-85
2021/01/15 01:53:32;;;;;;;8.52;6.43;;;;;;;-3.33;86.07;95920.97;1027804;28;20063;-85
2021/01/15 01:54:03;;;;;;;8.80;6.32;;;;;;;-3.41;85.89;95924.44;1028415;28;20077;-85
2021/01/15 01:54:37;;;;;;;10.05;6.93;;;;;;;-3.42;86.82;95922.81;1028327;28;20019;-86
2021/01/15 01:55:08;;;;;;;9.52;6.68;;;;;;;-3.39;86.38;95921.66;1033967;28;20053;-86
2021/01/15 01:55:38;;;;;;;11.48;6.45;;;;;;;-3.33;87.67;95920.97;1039883;28;20044;-86
2021/01/15 01:56:08;;;;;;;10.05;6.25;;;;;;;-3.41;85.64;95924.44;1036021;28;20101;-86
2021/01/15 01:56:39;;;;;;;7.43;6.43;;;;;;;-3.43;85.59;95922.94;1032261;28;20030;-86
2021/01/15 01:57:09;;;;;;;9.23;6.88;;;;;;;-3.44;85.85;95922.16;1031825;28;20060;-86
2021/01/15 01:57:40;;;;;;;7.20;5.97;;;;;;;-3.45;86.55;95927.50;1031979;28;20023;-86
2021/01/15 01:58:10;;;;;;;9.25;6.10;;;;;;;-3.37;87.83;95917.94;1035951;28;20407;-86
2021/01/15 01:58:41;;;;;;;6.75;5.60;;;;;;;-3.45;86.33;95922.31;1035904;28;20022;-87
2021/01/15 01:59:12;;;;;;;9.45;6.40;;;;;;;-3.45;85.71;95924.91;1035937;28;20021;-86
2021/01/15 01:59:42;;;;;;;8.90;6.18;;;;;;;-3.43;86.12;95923.78;1040014;28;20018;-86
2021/01/15 02:00:13;;;;;;;15.13;6.70;;;;;;;-3.48;85.38;95920.88;1040077;28;20017;-86
2021/01/15 02:00:44;;;;;;;9.63;6.93;;;;;;;-3.46;85.67;95926.69;1039976;28;20105;-87
2021/01/15 02:01:15;;;;;;;9.35;6.20;;;;;;;-3.35;87.66;95917.75;1039690;28;20044;-86
2021/01/15 02:01:45;;;;;;;10.55;6.32;;;;;;;-3.39;86.34;95916.47;1036124;28;20452;-85
2021/01/15 02:02:15;;;;;;;8.52;5.95;;;;;;;-3.31;86.97;95919.88;1031869;28;20014;-90
2021/01/15 02:02:46;;;;;;;9.20;6.25;;;;;;;-3.29;87.60;95917.09;1032143;28;20484;-86
2021/01/15 02:03:16;;;;;;;8.25;6.22;;;;;;;-3.34;86.34;95911.59;1031783;28;20065;-88
2021/01/15 02:03:47;;;;;;;10.02;6.25;;;;;;;-3.28;87.61;95913.53;1031866;28;20030;-88
2021/01/15 02:04:17;;;;;;;8.25;5.95;;;;;;;-3.33;87.12;95911.44;1035932;28;20495;-89
2021/01/15 02:04:48;;;;;;;10.43;6.60;;;;;;;-3.29;87.09;95915.31;1035759;28;20049;-88
2021/01/15 02:05:18;;;;;;;7.72;6.07;;;;;;;-3.29;86.43;95919.69;1039796;28;20079;-88
2021/01/15 02:05:49;;;;;;;8.40;6.10;;;;;;;-3.34;86.08;95917.59;1040077;28;20017;-87
2021/01/15 02:06:19;;;;;;;10.32;6.47;;;;;;;-3.29;86.86;95923.09;1039867;28;20034;-88
2021/01/15 02:06:50;;;;;;;7.45;5.93;;;;;;;-3.18;86.92;95915.94;1039905;28;20022;-88
2021/01/15 02:07:20;;;;;;;9.52;5.93;;;;;;;-3.28;85.32;95918.72;1040200;28;20017;-88
2021/01/15 02:07:51;;;;;;;8.82;5.57;;;;;;;-3.26;85.32;95916.75;1036013;28;20010;-88
2021/01/15 02:08:23;;;;;;;10.93;6.15;;;;;;;-3.28;85.69;95916.94;1035951;28;20024;-87
2021/01/15 02:08:54;;;;;;;6.43;5.68;;;;;;;-3.27;85.65;95913.38;1033830;28;20050;-87
2021/01/15 02:09:33;;;;;;;11.82;6.03;;;;;;;-3.22;86.44;95912.84;1035941;28;20038;-87
2021/01/15 02:10:13;;;;;;;10.75;6.93;;;;;;;-3.26;86.54;95914.97;1032139;28;20420;-87
2021/01/15 02:10:45;;;;;;;7.80;5.65;;;;;;;-3.32;85.23;95917.41;1037075;28;20614;-88
2021/01/15 02:11:35;;;;;;;7.05;5.63;;;;;;;-3.24;85.78;95920.78;1035893;28;20492;-87
2021/01/15 02:12:15;;;;;;;8.00;5.90;;;;;;;-3.39;86.23;95919.88;1036108;28;20029;-87
2021/01/15 02:13:04;;;;;;;;;;;;;;;-3.35;86.19;95922.94;1036428;28;20360;-88
2021/01/15 02:13:42;;;;;;;6.20;5.13;;;;;;;-3.47;87.27;95919.09;1035895;28;20419;-86
2021/01/15 02:14:30;;;;;;;7.75;5.80;;;;;;;-3.41;87.53;95923.63;1040144;28;20036;-87
2021/01/15 02:15:27;;;;;;;9.40;5.85;;;;;;;-3.49;86.85;95921.03;1035931;28;20514;-86
2021/01/15 02:16:08;;;;;;;8.45;5.53;;;;;;;-3.36;87.73;95923.91;1033928;28;20034;-87
2021/01/15 02:16:38;;;;;;;10.38;6.22;;;;;;;-3.33;86.78;95933.94;1036859;28;20483;-86
2021/01/15 02:17:08;;;;;;;8.80;5.80;;;;;;;-3.28;87.39;95921.31;1035904;28;20034;-86
2021/01/15 02:17:45;;;;;;;6.55;4.70;;;;;;;-3.42;85.86;95917.63;1033272;28;20030;-86
2021/01/15 02:18:23;;;;;;;10.20;6.05;;;;;;;-3.42;86.38;95914.22;1036013;28;20424;-86
2021/01/15 02:19:10;;;;;;;8.25;5.78;;;;;;;-3.36;87.19;95921.31;1035674;28;20042;-86
2021/01/15 02:20:05;;;;;;;9.77;5.80;;;;;;;-3.32;87.32;95923.41;1035900;28;20034;-86
2021/01/15 02:20:55;;;;;;;6.10;5.45;;;;;;;-3.38;85.31;95923.28;1037368;28;20386;-86
2021/01/15 02:22:03;;;;;;;8.35;5.65;;;;;;;-3.33;85.95;95915.81;1037672;28;20265;-87
2021/01/15 02:22:41;;;;;;;9.43;5.90;;;;;;;-3.43;85.72;95922.94;1040078;28;20410;-87
2021/01/15 02:23:38;;;;;;;11.77;6.25;;;;;;;-3.55;85.94;95923.34;1038628;28;20029;-87
2021/01/15 02:24:36;;;;;;;9.57;5.85;;;;;;;-3.54;86.96;95911.19;1035539;28;20042;-87
2021/01/15 02:25:45;;;;;;;10.30;5.60;;;;;;;-3.59;87.18;95922.03;1027793;28;20503;-87
2021/01/15 02:26:34;;;;;;;;;;;;;;;-3.59;87.31;95919.44;1032172;28;20030;-87
2021/01/15 02:27:20;;;;;;;8.75;5.40;;;;;;;-3.67;86.24;95910.88;1035353;28;20306;-87
2021/01/15 02:28:24;;;;;;;7.15;5.50;;;;;;;-3.61;87.15;95913.63;1035832;28;20026;-87
2021/01/15 02:29:27;;;;;;;9.45;6.20;;;;;;;-3.52;86.26;95917.00;1036201;28;20478;-87
2021/01/15 02:30:25;;;;;;;10.13;6.18;;;;;;;-3.71;85.77;95912.19;1027512;28;20213;-88
2021/01/15 02:31:16;;;;;;;8.02;5.85;;;;;;;-3.67;86.60;95913.47;1029666;28;20054;-87
2021/01/15 02:31:46;;;;;;;10.10;6.10;;;;;;;-3.74;87.14;95915.91;1034051;28;20018;-88
2021/01/15 02:32:36;;;;;;;7.45;5.30;;;;;;;-3.65;86.05;95914.94;1036087;28;20041;-86
2021/01/15 02:33:19;;;;;;;11.43;6.45;;;;;;;-3.69;87.91;95918.00;1031933;28;20019;-87
2021/01/15 02:34:09;;;;;;;7.82;5.55;;;;;;;-3.72;88.75;95915.75;1031946;28;20026;-86
2021/01/15 02:34:43;;;;;;;8.98;5.90;;;;;;;-3.71;87.68;95912.19;1032549;28;20018;-85